Time;durP1;ratioP1;P1;durP2;ratioP2;P2;SDS_P1;SDS_P2;PMS_P1;PMS_P2;Temp;Humidity;BMP_temperature;BMP_pressure;BME280_temperature;BME280_humidity;BME280_pressure;Samples;Min_cycle;Max_cycle;Signal;HPM_P1;HPM_P2
2022/10/01 00:01:46;;;;;;;40.35;25.88;;;;;;;;;;5049755;28;20033;-77
2022/10/01 00:04:12;;;;;;;45.45;26.55;;;;;;;;;;5048750;28;20098;-77
2022/10/01 00:06:38;;;;;;;39.22;24.80;;;;;;;;;;5049669;28;20524;-77
2022/10/01 00:09:04;;;;;;;34.17;22.85;;;;;;;;;;5048366;28;20087;-78
2022/10/01 00:11:30;;;;;;;41.70;23.90;;;;;;;;;;5049588;28;20107;-79
2022/10/01 00:13:56;;;;;;;39.60;24.20;;;;;;;;;;5049752;28;20120;-78
2022/10/01 00:16:23;;;;;;;42.85;25.20;;;;;;;;;;5049561;28;20140;-78
2022/10/01 00:18:48;;;;;;;44.22;24.92;;;;;;;;;;5049107;28;20048;-78
2022/10/01 00:21:15;;;;;;;46.33;28.10;;;;;;;;;;5049594;28;20040;-79
2022/10/01 00:23:41;;;;;;;46.28;25.80;;;;;;;;;;5049193;28;20087;-77
2022/10/01 00:26:10;;;;;;;48.25;25.10;;;;;;;;;;5048439;28;20134;-77
2022/10/01 00:28:36;;;;;;;45.33;26.42;;;;;;;;;;5049213;28;20268;-77
2022/10/01 00:31:02;;;;;;;41.22;25.30;;;;;;;;;;5049446;28;20049;-77
2022/10/01 00:33:27;;;;;;;41.90;23.90;;;;;;;;;;5049209;28;20049;-77
2022/10/01 00:35:53;;;;;;;47.90;27.65;;;;;;;;;;5055516;28;20040;-78
2022/10/01 00:38:19;;;;;;;41.58;25.23;;;;;;;;;;5054089;28;20048;-78
2022/10/01 00:40:45;;;;;;;50.10;28.48;;;;;;;;;;5049137;28;20041;-78
2022/10/01 00:43:38;;;;;;;52.90;27.15;;;;;;;;;;5049087;28;20540;-78
2022/10/01 00:46:18;;;;;;;47.47;25.75;;;;;;;;;;5046715;28;20424;-79
2022/10/01 00:48:58;;;;;;;55.25;29.63;;;;;;;;;;5048820;28;20119;-77
2022/10/01 00:51:25;;;;;;;59.95;30.58;;;;;;;;;;5049173;28;20575;-79
2022/10/01 00:53:52;;;;;;;56.65;29.20;;;;;;;;;;5048775;28;20047;-77
2022/10/01 00:56:18;;;;;;;52.15;29.35;;;;;;;;;;5048902;28;20124;-76
2022/10/01 00:58:44;;;;;;;57.85;30.58;;;;;;;;;;5048777;28;20128;-77
2022/10/01 01:01:09;;;;;;;70.85;34.47;;;;;;;;;;5048931;28;20499;-78
2022/10/01 01:03:35;;;;;;;56.97;29.83;;;;;;;;;;5047142;28;20524;-76
2022/10/01 01:06:02;;;;;;;62.92;30.50;;;;;;;;;;5048968;28;20049;-77
2022/10/01 01:08:28;;;;;;;59.78;30.58;;;;;;;;;;5048505;28;20053;-76
2022/10/01 01:10:54;;;;;;;66.18;30.92;;;;;;;;;;5047372;28;20044;-76
2022/10/01 01:13:29;;;;;;;71.28;32.75;;;;;;;;;;5048480;28;20055;-77
2022/10/01 01:15:56;;;;;;;66.68;32.65;;;;;;;;;;5048387;28;20076;-77
2022/10/01 01:18:24;;;;;;;76.60;35.08;;;;;;;;;;5048380;28;20043;-77
2022/10/01 01:20:50;;;;;;;69.40;34.58;;;;;;;;;;5047161;28;20045;-77
2022/10/01 01:23:16;;;;;;;74.13;35.30;;;;;;;;;;5048427;28;20049;-79
2022/10/01 01:25:51;;;;;;;75.07;35.72;;;;;;;;;;5047056;28;20039;-78
2022/10/01 01:28:17;;;;;;;81.90;36.67;;;;;;;;;;5048295;28;20049;-78
2022/10/01 01:30:43;;;;;;;78.60;35.97;;;;;;;;;;5048245;28;20486;-77
2022/10/01 01:33:13;;;;;;;77.05;35.47;;;;;;;;;;5047186;28;20548;-78
2022/10/01 01:35:40;;;;;;;68.32;32.22;;;;;;;;;;5048194;28;20037;-77
2022/10/01 01:38:08;;;;;;;81.38;33.92;;;;;;;;;;5048249;28;20068;-78
2022/10/01 01:40:35;;;;;;;77.15;32.25;;;;;;;;;;5048309;28;20080;-78
2022/10/01 01:43:04;;;;;;;65.57;29.92;;;;;;;;;;5048445;28;20171;-76
2022/10/01 01:45:30;;;;;;;76.07;32.25;;;;;;;;;;5047197;28;20049;-77
2022/10/01 01:47:56;;;;;;;77.00;33.50;;;;;;;;;;5047899;28;20051;-77
2022/10/01 01:50:24;;;;;;;74.57;29.60;;;;;;;;;;5047050;28;20045;-78
2022/10/01 01:52:51;;;;;;;72.00;30.58;;;;;;;;;;5030306;28;20049;-78
2022/10/01 01:55:17;;;;;;;65.30;29.63;;;;;;;;;;5048503;28;20531;-76
2022/10/01 01:57:43;;;;;;;80.13;28.65;;;;;;;;;;5046734;28;20049;-78
2022/10/01 02:00:11;;;;;;;63.70;26.25;;;;;;;;;;5063702;28;20045;-78
2022/10/01 02:02:38;;;;;;;71.97;30.60;;;;;;;;;;5047883;28;20057;-77
2022/10/01 02:05:06;;;;;;;56.80;25.10;;;;;;;;;;5048332;28;20372;-77
2022/10/01 02:07:38;;;;;;;70.55;29.88;;;;;;;;;;5047862;28;20044;-78
2022/10/01 02:10:16;;;;;;;80.38;32.58;;;;;;;;;;5048192;28;20052;-76
2022/10/01 02:12:42;;;;;;;78.88;31.58;;;;;;;;;;5047819;28;20045;-77
2022/10/01 02:15:20;;;;;;;72.38;29.15;;;;;;;;;;5048320;28;20045;-77
2022/10/01 02:17:52;;;;;;;86.97;29.73;;;;;;;;;;5046660;28;20044;-77
2022/10/01 02:20:27;;;;;;;76.70;29.77;;;;;;;;;;5047003;28;20053;-77
2022/10/01 02:22:57;;;;;;;65.55;25.67;;;;;;;;;;5047870;28;20509;-78
2022/10/01 02:25:25;;;;;;;77.55;27.17;;;;;;;;;;5048087;28;20467;-78
2022/10/01 02:27:57;;;;;;;78.80;27.23;;;;;;;;;;5046582;28;20048;-77
2022/10/01 02:30:23;;;;;;;68.53;25.88;;;;;;;;;;5048447;28;20107;-78
2022/10/01 02:32:49;;;;;;;69.00;24.83;;;;;;;;;;5058328;28;20041;-75
2022/10/01 02:35:15;;;;;;;72.28;26.80;;;;;;;;;;5048940;28;20056;-76
2022/10/01 02:37:43;;;;;;;84.72;30.75;;;;;;;;;;5047820;28;20408;-78
2022/10/01 02:40:14;;;;;;;80.63;29.98;;;;;;;;;;5048795;28;20128;-78
2022/10/01 02:42:44;;;;;;;91.13;32.95;;;;;;;;;;5049969;28;20401;-79
2022/10/01 02:45:10;;;;;;;87.28;32.90;;;;;;;;;;5033984;28;20044;-80
2022/10/01 02:47:38;;;;;;;89.95;33.53;;;;;;;;;;5051300;28;20464;-77
2022/10/01 02:50:04;;;;;;;96.35;32.42;;;;;;;;;;5050149;28;20044;-77
2022/10/01 02:52:33;;;;;;;110.03;37.10;;;;;;;;;;5049946;28;20042;-78
2022/10/01 02:55:05;;;;;;;95.35;33.15;;;;;;;;;;5050890;28;20418;-76
2022/10/01 02:57:31;;;;;;;108.47;35.22;;;;;;;;;;5049825;28;20132;-77
2022/10/01 02:59:58;;;;;;;120.07;37.95;;;;;;;;;;5050831;28;20056;-76
2022/10/01 03:02:28;;;;;;;111.70;35.28;;;;;;;;;;5032918;28;20040;-78
2022/10/01 03:04:55;;;;;;;88.85;33.65;;;;;;;;;;5051343;28;20425;-77
2022/10/01 03:07:21;;;;;;;125.68;39.13;;;;;;;;;;5056231;28;20046;-76
2022/10/01 03:09:48;;;;;;;109.68;35.20;;;;;;;;;;5060163;28;20049;-77
2022/10/01 03:12:15;;;;;;;105.20;34.13;;;;;;;;;;5057886;28;20044;-75
2022/10/01 03:14:42;;;;;;;107.13;34.13;;;;;;;;;;5050866;28;20037;-77
2022/10/01 03:17:09;;;;;;;99.53;35.00;;;;;;;;;;5051028;28;20468;-77
2022/10/01 03:19:34;;;;;;;100.53;34.95;;;;;;;;;;5050889;28;20083;-77
2022/10/01 03:22:00;;;;;;;94.35;33.25;;;;;;;;;;5050429;28;20045;-77
2022/10/01 03:24:26;;;;;;;99.63;32.63;;;;;;;;;;5050523;28;20049;-75
2022/10/01 03:26:53;;;;;;;88.80;32.58;;;;;;;;;;5050433;28;20075;-76
2022/10/01 03:29:19;;;;;;;89.10;32.80;;;;;;;;;;5050671;28;20060;-76
2022/10/01 03:31:45;;;;;;;85.85;32.40;;;;;;;;;;5050409;28;20186;-78
2022/10/01 03:34:12;;;;;;;86.05;31.00;;;;;;;;;;5050798;28;20145;-76
2022/10/01 03:36:38;;;;;;;84.35;30.55;;;;;;;;;;5050444;28;20516;-78
2022/10/01 03:39:04;;;;;;;92.63;31.67;;;;;;;;;;5050192;28;20053;-77
2022/10/01 03:41:30;;;;;;;88.20;32.70;;;;;;;;;;5050295;28;20048;-77
2022/10/01 03:43:55;;;;;;;109.82;35.15;;;;;;;;;;5050001;28;20056;-78
2022/10/01 03:46:21;;;;;;;101.93;35.05;;;;;;;;;;5048939;28;20052;-78
2022/10/01 03:48:48;;;;;;;110.95;32.05;;;;;;;;;;5048688;28;20098;-78
2022/10/01 03:51:14;;;;;;;100.93;32.15;;;;;;;;;;5048752;28;20082;-77
2022/10/01 03:53:40;;;;;;;126.63;35.83;;;;;;;;;;5049468;28;20041;-76
2022/10/01 03:56:06;;;;;;;140.98;31.00;;;;;;;;;;5050200;28;20045;-77
2022/10/01 03:58:32;;;;;;;128.93;30.90;;;;;;;;;;5049876;28;20077;-76
2022/10/01 04:00:59;;;;;;;163.00;32.22;;;;;;;;;;5049718;28;20390;-76
2022/10/01 04:03:25;;;;;;;186.85;33.13;;;;;;;;;;5049667;28;20469;-77
2022/10/01 04:05:51;;;;;;;166.07;37.78;;;;;;;;;;5049797;28;20151;-76
2022/10/01 04:08:17;;;;;;;107.70;29.83;;;;;;;;;;5048084;28;20051;-75
2022/10/01 04:10:43;;;;;;;109.25;26.70;;;;;;;;;;5049548;28;20465;-77
2022/10/01 04:13:08;;;;;;;117.63;31.50;;;;;;;;;;5049795;28;20064;-77
2022/10/01 04:15:35;;;;;;;119.63;31.20;;;;;;;;;;5049617;28;20037;-77
2022/10/01 04:18:05;;;;;;;135.55;29.30;;;;;;;;;;5049301;28;20467;-75
2022/10/01 04:20:31;;;;;;;125.95;31.75;;;;;;;;;;5049563;28;20520;-78
2022/10/01 04:22:57;;;;;;;125.43;27.30;;;;;;;;;;5049146;28;20040;-76
2022/10/01 04:25:23;;;;;;;186.80;34.53;;;;;;;;;;5049632;28;20048;-76
2022/10/01 04:27:56;;;;;;;156.00;28.65;;;;;;;;;;5050927;28;20124;-77
2022/10/01 04:30:22;;;;;;;176.20;34.13;;;;;;;;;;5065432;28;20472;-77
2022/10/01 04:32:48;;;;;;;182.50;33.45;;;;;;;;;;5049005;28;20095;-76
2022/10/01 04:35:14;;;;;;;136.68;28.52;;;;;;;;;;5049350;28;20091;-77
2022/10/01 04:37:40;;;;;;;363.92;31.63;;;;;;;;;;5049120;28;20075;-75
2022/10/01 04:40:06;;;;;;;152.63;31.33;;;;;;;;;;5049052;28;20045;-76
2022/10/01 04:42:32;;;;;;;157.68;32.80;;;;;;;;;;5048977;28;20136;-74
2022/10/01 04:44:58;;;;;;;196.63;37.22;;;;;;;;;;5049094;28;20132;-76
2022/10/01 04:47:24;;;;;;;231.13;38.13;;;;;;;;;;5048988;28;20029;-75
2022/10/01 04:49:50;;;;;;;205.60;39.67;;;;;;;;;;5048857;28;20528;-74
2022/10/01 04:52:16;;;;;;;168.63;36.45;;;;;;;;;;5049035;28;20120;-75
2022/10/01 04:54:42;;;;;;;171.77;37.78;;;;;;;;;;5048843;28;20131;-75
2022/10/01 04:57:08;;;;;;;143.50;30.45;;;;;;;;;;5048777;28;20040;-75
2022/10/01 04:59:33;;;;;;;143.00;33.95;;;;;;;;;;5047429;28;20106;-75
2022/10/01 05:01:59;;;;;;;171.80;38.00;;;;;;;;;;5048254;28;20069;-75
2022/10/01 05:04:26;;;;;;;191.75;38.22;;;;;;;;;;5048216;28;20532;-74
2022/10/01 05:06:52;;;;;;;156.00;30.50;;;;;;;;;;5048689;28;20052;-75
2022/10/01 05:09:18;;;;;;;99.15;30.77;;;;;;;;;;5048079;28;20119;-75
2022/10/01 05:11:44;;;;;;;149.13;37.67;;;;;;;;;;5048781;28;20041;-75
2022/10/01 05:14:10;;;;;;;137.68;35.63;;;;;;;;;;5048444;28;20040;-74
2022/10/01 05:16:36;;;;;;;150.45;37.15;;;;;;;;;;5048520;28;20123;-76
2022/10/01 05:19:02;;;;;;;124.43;31.40;;;;;;;;;;5048295;28;20389;-76
2022/10/01 05:21:28;;;;;;;159.23;34.63;;;;;;;;;;5048601;28;20049;-76
2022/10/01 05:23:54;;;;;;;116.25;31.23;;;;;;;;;;5048186;28;20053;-75
2022/10/01 05:26:19;;;;;;;168.77;38.88;;;;;;;;;;5048497;28;20045;-75
2022/10/01 05:28:45;;;;;;;158.98;35.25;;;;;;;;;;5048360;28;20068;-75
2022/10/01 05:31:12;;;;;;;153.98;36.80;;;;;;;;;;5047072;28;20041;-75
2022/10/01 05:33:37;;;;;;;141.18;34.13;;;;;;;;;;5048374;28;20045;-75
2022/10/01 05:36:05;;;;;;;138.55;33.45;;;;;;;;;;5048372;28;20505;-75
2022/10/01 05:38:36;;;;;;;208.38;38.85;;;;;;;;;;5048252;28;20041;-75
2022/10/01 05:41:02;;;;;;;147.13;36.75;;;;;;;;;;5048326;28;20051;-75
2022/10/01 05:43:29;;;;;;;146.55;35.67;;;;;;;;;;5048090;28;20056;-75
2022/10/01 05:45:58;;;;;;;130.15;37.20;;;;;;;;;;5048174;28;20048;-75
2022/10/01 05:48:24;;;;;;;65.55;21.92;;;;;;;;;;5048139;28;20044;-75
2022/10/01 05:50:50;;;;;;;96.63;29.08;;;;;;;;;;5048031;28;20072;-75
2022/10/01 05:53:16;;;;;;;117.22;37.65;;;;;;;;;;5046625;28;20044;-75
2022/10/01 05:55:42;;;;;;;118.72;37.13;;;;;;;;;;5048358;28;20052;-75
2022/10/01 05:58:09;;;;;;;114.82;38.00;;;;;;;;;;5048087;28;20421;-76
2022/10/01 06:00:35;;;;;;;158.00;43.92;;;;;;;;;;5048046;28;20547;-74
2022/10/01 06:03:01;;;;;;;71.82;27.05;;;;;;;;;;5046611;28;20049;-77
2022/10/01 06:05:27;;;;;;;103.88;36.85;;;;;;;;;;5048224;28;20044;-77
2022/10/01 06:07:53;;;;;;;67.78;26.55;;;;;;;;;;5030066;28;20063;-76
2022/10/01 06:10:19;;;;;;;81.38;31.52;;;;;;;;;;5047203;28;20527;-76
2022/10/01 06:12:45;;;;;;;96.18;34.25;;;;;;;;;;5047063;28;20036;-76
2022/10/01 06:15:11;;;;;;;95.93;35.17;;;;;;;;;;5048943;28;20037;-77
2022/10/01 06:17:42;;;;;;;84.05;29.75;;;;;;;;;;5068648;28;20045;-76
2022/10/01 06:20:11;;;;;;;74.15;29.25;;;;;;;;;;5052869;28;20491;-77
2022/10/01 06:22:37;;;;;;;66.82;28.08;;;;;;;;;;5053116;28;20063;-78
2022/10/01 06:25:04;;;;;;;63.72;24.85;;;;;;;;;;5055628;28;20471;-77
2022/10/01 06:27:30;;;;;;;92.32;34.53;;;;;;;;;;5055781;28;20045;-77
2022/10/01 06:29:56;;;;;;;59.60;23.83;;;;;;;;;;5060071;28;20075;-76
2022/10/01 06:32:22;;;;;;;91.50;32.15;;;;;;;;;;5074750;28;20029;-76
2022/10/01 06:34:48;;;;;;;67.45;24.08;;;;;;;;;;5052507;28;20041;-77
2022/10/01 06:37:14;;;;;;;62.13;27.63;;;;;;;;;;5049166;28;20041;-76
2022/10/01 06:39:39;;;;;;;74.60;31.25;;;;;;;;;;5050699;28;20060;-77
2022/10/01 06:42:05;;;;;;;76.95;30.25;;;;;;;;;;5051298;28;20052;-77
2022/10/01 06:44:31;;;;;;;65.60;29.42;;;;;;;;;;5050213;28;20045;-78
2022/10/01 06:46:58;;;;;;;77.45;33.53;;;;;;;;;;5051579;28;20386;-77
2022/10/01 06:49:25;;;;;;;76.57;33.95;;;;;;;;;;5055368;28;20103;-80
2022/10/01 06:54:35;;;;;;;101.45;35.83;;;;;;;;;;5051390;28;20072;-80
2022/10/01 06:57:01;;;;;;;58.33;26.00;;;;;;;;;;5069090;28;20129;-77
2022/10/01 06:59:27;;;;;;;82.82;32.90;;;;;;;;;;5065477;28;20049;-78
2022/10/01 07:01:53;;;;;;;43.35;21.92;;;;;;;;;;5050097;28;20045;-77
2022/10/01 07:04:19;;;;;;;70.22;30.83;;;;;;;;;;5051068;28;20472;-77
2022/10/01 07:06:45;;;;;;;66.15;28.63;;;;;;;;;;5051369;28;20044;-78
2022/10/01 07:09:11;;;;;;;81.35;33.97;;;;;;;;;;5050295;28;20060;-78
2022/10/01 07:11:40;;;;;;;85.85;36.20;;;;;;;;;;5049468;28;20471;-82
2022/10/01 07:14:06;;;;;;;81.78;35.30;;;;;;;;;;5049844;28;20515;-78
2022/10/01 07:16:32;;;;;;;101.60;39.85;;;;;;;;;;5053631;28;20456;-77
2022/10/01 07:18:58;;;;;;;88.35;37.95;;;;;;;;;;5050096;28;20076;-77
2022/10/01 07:21:24;;;;;;;60.50;28.75;;;;;;;;;;5050575;28;20094;-78
2022/10/01 07:23:50;;;;;;;89.55;37.70;;;;;;;;;;5059330;28;20052;-78
2022/10/01 07:26:16;;;;;;;85.65;36.67;;;;;;;;;;5049976;28;20033;-77
2022/10/01 07:28:43;;;;;;;83.70;34.42;;;;;;;;;;5049991;28;20432;-78
2022/10/01 07:31:10;;;;;;;83.75;33.38;;;;;;;;;;5044537;28;20058;-78
2022/10/01 07:33:36;;;;;;;92.55;36.17;;;;;;;;;;5078023;28;20045;-78
2022/10/01 07:36:03;;;;;;;87.45;36.13;;;;;;;;;;5048114;28;20048;-78
2022/10/01 07:38:29;;;;;;;83.35;35.55;;;;;;;;;;5049672;28;20044;-78
2022/10/01 07:40:55;;;;;;;68.55;32.22;;;;;;;;;;5050086;28;20467;-77
2022/10/01 07:43:20;;;;;;;69.97;32.08;;;;;;;;;;5050181;28;20110;-79
2022/10/01 07:45:48;;;;;;;70.65;33.85;;;;;;;;;;5050378;28;20033;-79
2022/10/01 07:48:14;;;;;;;65.75;33.80;;;;;;;;;;5050107;28;20033;-80
2022/10/01 07:50:41;;;;;;;58.97;31.30;;;;;;;;;;5050241;28;20040;-77
2022/10/01 07:53:07;;;;;;;46.78;24.50;;;;;;;;;;5049934;28;20051;-78
2022/10/01 07:55:33;;;;;;;51.17;26.85;;;;;;;;;;5049447;28;20044;-80
2022/10/01 07:58:00;;;;;;;45.47;24.85;;;;;;;;;;5067946;28;20044;-79
2022/10/01 08:00:26;;;;;;;44.85;27.15;;;;;;;;;;5083764;28;20504;-79
2022/10/01 08:02:54;;;;;;;40.63;24.42;;;;;;;;;;5067381;28;20045;-82
2022/10/01 08:05:21;;;;;;;39.00;22.92;;;;;;;;;;5068538;28;20424;-81
2022/10/01 08:07:47;;;;;;;40.75;25.80;;;;;;;;;;5067307;28;20074;-81
2022/10/01 08:10:13;;;;;;;32.53;20.77;;;;;;;;;;5069285;28;20059;-81
2022/10/01 08:12:41;;;;;;;35.67;24.00;;;;;;;;;;5070533;28;20578;-81
2022/10/01 08:15:09;;;;;;;36.35;23.30;;;;;;;;;;5070651;28;20052;-77
2022/10/01 08:17:35;;;;;;;34.95;23.83;;;;;;;;;;5069574;28;20511;-77
2022/10/01 08:20:01;;;;;;;34.95;23.70;;;;;;;;;;5084143;28;20045;-77
2022/10/01 08:22:27;;;;;;;26.50;20.13;;;;;;;;;;5048688;28;20045;-76
2022/10/01 08:24:53;;;;;;;35.45;22.25;;;;;;;;;;5047003;28;20049;-75
2022/10/01 08:27:19;;;;;;;16.08;14.20;;;;;;;;;;5049389;28;20055;-78
2022/10/01 08:29:44;;;;;;;29.55;20.40;;;;;;;;;;5062343;28;20071;-77
2022/10/01 08:32:11;;;;;;;28.95;21.40;;;;;;;;;;5067782;28;20625;-76
2022/10/01 08:34:37;;;;;;;27.77;19.38;;;;;;;;;;5060028;28;20481;-75
2022/10/01 08:37:03;;;;;;;33.08;21.23;;;;;;;;;;5046132;28;20041;-76
2022/10/01 08:39:28;;;;;;;22.33;16.48;;;;;;;;;;5048047;28;20106;-75
2022/10/01 08:42:00;;;;;;;13.82;12.43;;;;;;;;;;5046909;28;20064;-76
2022/10/01 08:44:31;;;;;;;27.85;21.02;;;;;;;;;;5046217;28;20087;-76
2022/10/01 08:46:59;;;;;;;25.77;19.35;;;;;;;;;;5028203;28;20095;-76
2022/10/01 08:49:31;;;;;;;32.85;22.25;;;;;;;;;;5046536;28;20132;-76
2022/10/01 08:52:02;;;;;;;34.15;23.25;;;;;;;;;;5061271;28;20064;-78
2022/10/01 08:54:31;;;;;;;30.85;23.88;;;;;;;;;;5046211;28;20095;-76
2022/10/01 08:56:58;;;;;;;33.58;23.48;;;;;;;;;;5048139;28;20072;-78
2022/10/01 08:59:24;;;;;;;29.45;23.67;;;;;;;;;;5053730;28;20412;-76
2022/10/01 09:01:50;;;;;;;26.52;19.98;;;;;;;;;;5047746;28;20040;-75
2022/10/01 09:04:16;;;;;;;27.85;22.35;;;;;;;;;;5047327;28;20045;-74
2022/10/01 09:06:42;;;;;;;30.23;22.90;;;;;;;;;;5041397;28;20124;-74
2022/10/01 09:09:27;;;;;;;31.45;23.67;;;;;;;;;;5041901;28;20049;-75
2022/10/01 09:12:02;;;;;;;38.58;23.50;;;;;;;;;;5042008;28;20432;-74
2022/10/01 09:14:34;;;;;;;38.42;26.15;;;;;;;;;;5046306;28;20552;-74
2022/10/01 09:17:18;;;;;;;45.90;34.10;;;;;;;;;;5047218;28;20041;-75
2022/10/01 09:19:58;;;;;;;39.78;26.67;;;;;;;;;;5042663;28;20041;-76
2022/10/01 09:22:25;;;;;;;29.55;20.92;;;;;;;;;;5066413;28;20420;-75
2022/10/01 09:25:14;;;;;;;37.58;25.85;;;;;;;;;;5048731;28;20083;-75
2022/10/01 09:27:40;;;;;;;28.00;22.30;;;;;;;;;;5038906;28;20076;-73
2022/10/01 09:30:09;;;;;;;31.35;23.00;;;;;;;;;;5047067;28;20569;-73
2022/10/01 09:32:40;;;;;;;29.20;21.70;;;;;;;;;;5046057;28;20071;-72
2022/10/01 09:35:11;;;;;;;31.52;21.77;;;;;;;;;;5045847;28;20036;-73
2022/10/01 09:37:42;;;;;;;27.13;21.13;;;;;;;;;;5045770;28;20037;-73
2022/10/01 09:40:21;;;;;;;31.75;22.77;;;;;;;;;;5014497;28;20134;-73
2022/10/01 09:42:47;;;;;;;30.67;22.27;;;;;;;;;;5043211;28;20068;-73
2022/10/01 09:45:13;;;;;;;33.70;22.63;;;;;;;;;;5048235;28;20520;-73
2022/10/01 09:47:42;;;;;;;26.42;19.85;;;;;;;;;;5048946;28;20053;-73
2022/10/01 09:50:10;;;;;;;28.65;22.48;;;;;;;;;;5048516;28;20062;-73
2022/10/01 09:52:37;;;;;;;29.75;21.05;;;;;;;;;;5050356;28;20099;-73
2022/10/01 09:55:10;;;;;;;29.50;22.58;;;;;;;;;;5049826;28;20102;-74
2022/10/01 09:57:37;;;;;;;25.20;18.48;;;;;;;;;;5050207;28;20556;-73
2022/10/01 10:00:09;;;;;;;25.85;18.08;;;;;;;;;;5051138;28;20505;-73
2022/10/01 10:02:42;;;;;;;14.25;12.73;;;;;;;;;;5050928;28;20048;-73
2022/10/01 10:05:14;;;;;;;28.90;20.02;;;;;;;;;;5050785;28;20097;-73
2022/10/01 10:07:50;;;;;;;36.60;22.50;;;;;;;;;;5042095;28;20477;-74
2022/10/01 10:10:22;;;;;;;30.50;21.55;;;;;;;;;;5066343;28;20548;-75
2022/10/01 10:12:52;;;;;;;30.85;21.17;;;;;;;;;;5033801;28;20084;-75
2022/10/01 10:15:20;;;;;;;29.35;20.83;;;;;;;;;;5017266;28;20047;-74
2022/10/01 10:17:48;;;;;;;33.40;21.00;;;;;;;;;;5049898;28;20041;-74
2022/10/01 10:20:21;;;;;;;34.05;23.08;;;;;;;;;;5050979;28;20068;-73
2022/10/01 10:22:47;;;;;;;36.95;22.77;;;;;;;;;;5045919;28;20060;-75
2022/10/01 10:25:16;;;;;;;32.30;19.48;;;;;;;;;;5049053;28;20280;-76
2022/10/01 10:27:50;;;;;;;28.92;20.08;;;;;;;;;;5043725;28;20362;-76
2022/10/01 10:30:16;;;;;;;29.92;20.08;;;;;;;;;;5048912;28;20033;-74
2022/10/01 10:32:42;;;;;;;33.80;23.15;;;;;;;;;;5024715;28;20112;-74
2022/10/01 10:35:09;;;;;;;33.83;21.38;;;;;;;;;;5036928;28;20125;-75
2022/10/01 10:37:36;;;;;;;38.17;24.30;;;;;;;;;;5021284;28;20049;-74
2022/10/01 10:40:01;;;;;;;32.70;23.65;;;;;;;;;;5050102;28;20047;-74
2022/10/01 10:42:29;;;;;;;35.30;23.65;;;;;;;;;;5053016;28;20262;-74
2022/10/01 10:44:55;;;;;;;26.25;19.55;;;;;;;;;;5049459;28;20053;-76
2022/10/01 10:47:22;;;;;;;29.02;19.05;;;;;;;;;;5032831;28;20037;-77
2022/10/01 10:49:50;;;;;;;29.70;21.02;;;;;;;;;;5032961;28;20540;-76
2022/10/01 10:52:29;;;;;;;30.33;20.35;;;;;;;;;;5064916;28;20621;-74
2022/10/01 10:54:55;;;;;;;27.38;20.05;;;;;;;;;;5049669;28;20133;-75
2022/10/01 10:57:26;;;;;;;25.77;19.60;;;;;;;;;;5047702;28;20037;-73
2022/10/01 10:59:59;;;;;;;25.63;20.38;;;;;;;;;;5048541;28;20052;-74
2022/10/01 11:02:29;;;;;;;25.73;20.00;;;;;;;;;;5049308;28;20043;-73
2022/10/01 11:04:55;;;;;;;26.00;20.20;;;;;;;;;;5047920;28;20033;-73
2022/10/01 11:07:21;;;;;;;31.23;20.65;;;;;;;;;;5052453;28;20045;-74
2022/10/01 11:09:53;;;;;;;25.98;20.33;;;;;;;;;;5050835;28;20521;-72
2022/10/01 11:12:23;;;;;;;27.13;21.70;;;;;;;;;;5060572;28;20050;-73
2022/10/01 11:15:10;;;;;;;27.60;20.85;;;;;;;;;;5048811;28;20449;-74
2022/10/01 11:17:54;;;;;;;30.48;21.23;;;;;;;;;;5055675;28;20040;-76
2022/10/01 11:20:24;;;;;;;29.52;22.42;;;;;;;;;;5069834;28;20075;-74
2022/10/01 11:22:52;;;;;;;28.00;20.92;;;;;;;;;;5056636;28;20064;-73
2022/10/01 11:25:20;;;;;;;28.52;22.42;;;;;;;;;;5049453;28;20361;-79
2022/10/01 11:28:04;;;;;;;25.65;20.58;;;;;;;;;;5048853;28;20106;-76
2022/10/01 11:30:40;;;;;;;28.05;20.35;;;;;;;;;;5037984;28;20120;-75
2022/10/01 11:33:17;;;;;;;26.58;19.90;;;;;;;;;;5029722;28;20045;-76
2022/10/01 11:35:44;;;;;;;25.05;19.75;;;;;;;;;;5029472;28;20417;-75
2022/10/01 11:38:15;;;;;;;26.58;20.65;;;;;;;;;;5044693;28;20088;-80
2022/10/01 11:40:42;;;;;;;24.83;19.48;;;;;;;;;;5043662;28;20044;-79
2022/10/01 11:43:44;;;;;;;23.27;19.20;;;;;;;;;;5068657;28;20055;-77
2022/10/01 11:46:18;;;;;;;28.23;19.65;;;;;;;;;;5007272;28;20112;-78
2022/10/01 11:48:49;;;;;;;24.25;19.48;;;;;;;;;;5060361;28;20048;-78
2022/10/01 11:51:16;;;;;;;23.08;20.23;;;;;;;;;;5054515;28;20616;-76
2022/10/01 11:53:44;;;;;;;23.88;19.42;;;;;;;;;;5064186;28;20620;-77
2022/10/01 11:59:32;;;;;;;24.25;19.95;;;;;;;;;;5026539;28;20046;-77
2022/10/01 12:02:09;;;;;;;25.02;20.77;;;;;;;;;;5043039;28;20511;-76
2022/10/01 12:04:39;;;;;;;25.55;21.25;;;;;;;;;;5048005;28;20076;-77
2022/10/01 12:07:12;;;;;;;29.38;21.55;;;;;;;;;;5050245;28;20095;-77
2022/10/01 12:09:38;;;;;;;31.08;21.35;;;;;;;;;;5052959;28;20048;-78
2022/10/01 12:12:09;;;;;;;28.20;22.00;;;;;;;;;;5050907;28;20095;-78
2022/10/01 12:14:36;;;;;;;32.63;22.88;;;;;;;;;;5048764;28;20041;-78
2022/10/01 12:17:22;;;;;;;36.75;25.27;;;;;;;;;;5048553;28;20067;-79
2022/10/01 12:19:49;;;;;;;40.53;25.75;;;;;;;;;;5045222;28;20079;-79
2022/10/01 12:22:15;;;;;;;42.40;25.20;;;;;;;;;;5049333;28;20048;-77
2022/10/01 12:24:41;;;;;;;34.92;23.25;;;;;;;;;;5048955;28;20057;-78
2022/10/01 12:27:10;;;;;;;41.05;25.27;;;;;;;;;;5048244;28;20032;-78
2022/10/01 12:29:49;;;;;;;49.35;30.75;;;;;;;;;;5048610;28;20037;-77
2022/10/01 12:32:15;;;;;;;40.63;27.00;;;;;;;;;;5047878;28;20556;-78
2022/10/01 12:34:49;;;;;;;36.40;24.23;;;;;;;;;;5046810;28;20141;-78
2022/10/01 12:37:34;;;;;;;47.28;29.17;;;;;;;;;;5047509;28;20029;-76
2022/10/01 12:40:09;;;;;;;45.90;27.55;;;;;;;;;;5046691;28;20117;-77
2022/10/01 12:42:40;;;;;;;38.28;26.15;;;;;;;;;;5048741;28;20044;-78
2022/10/01 12:45:11;;;;;;;43.42;27.75;;;;;;;;;;5040385;28;20543;-77
2022/10/01 12:47:56;;;;;;;41.13;26.42;;;;;;;;;;5048495;28;20048;-76
2022/10/01 12:50:25;;;;;;;28.65;21.80;;;;;;;;;;5039558;28;20103;-77
2022/10/01 12:52:57;;;;;;;34.95;24.95;;;;;;;;;;5047559;28;20045;-75
2022/10/01 12:55:28;;;;;;;25.80;20.13;;;;;;;;;;5048493;28;20048;-76
2022/10/01 12:57:54;;;;;;;27.00;20.45;;;;;;;;;;5051314;28;20051;-77
2022/10/01 13:00:21;;;;;;;29.92;21.40;;;;;;;;;;5065827;28;20112;-77
2022/10/01 13:03:06;;;;;;;37.70;24.48;;;;;;;;;;5060462;28;20057;-77
2022/10/01 13:05:47;;;;;;;36.45;24.08;;;;;;;;;;5049396;28;20044;-77
2022/10/01 13:08:21;;;;;;;33.20;23.05;;;;;;;;;;5048015;28;20045;-76
2022/10/01 13:10:50;;;;;;;30.02;24.25;;;;;;;;;;5061169;28;20495;-80
2022/10/01 13:13:22;;;;;;;30.33;22.08;;;;;;;;;;5068254;28;20044;-79
2022/10/01 13:15:48;;;;;;;24.10;20.88;;;;;;;;;;5068335;28;20040;-77
2022/10/01 13:18:17;;;;;;;20.92;18.60;;;;;;;;;;5068320;28;20071;-80
2022/10/01 13:20:43;;;;;;;21.77;18.98;;;;;;;;;;5067876;28;20376;-79
2022/10/01 13:23:29;;;;;;;23.02;19.88;;;;;;;;;;5068234;28;20053;-77
2022/10/01 13:26:07;;;;;;;26.42;21.02;;;;;;;;;;5057590;28;20043;-78
2022/10/01 13:28:43;;;;;;;21.67;18.70;;;;;;;;;;5066592;28;20044;-77
2022/10/01 13:31:09;;;;;;;23.95;19.10;;;;;;;;;;5051053;28;20504;-76
2022/10/01 13:33:36;;;;;;;26.40;20.38;;;;;;;;;;5047758;28;20037;-77
2022/10/01 13:36:02;;;;;;;28.35;20.30;;;;;;;;;;5047846;28;20330;-79
2022/10/01 13:38:29;;;;;;;25.38;19.35;;;;;;;;;;5047759;28;20049;-79
2022/10/01 13:41:02;;;;;;;32.45;21.50;;;;;;;;;;5048209;28;20041;-78
2022/10/01 13:43:28;;;;;;;24.75;19.17;;;;;;;;;;5047717;28;20040;-81
2022/10/01 13:45:54;;;;;;;21.60;19.27;;;;;;;;;;5044151;28;20510;-77
2022/10/01 13:48:22;;;;;;;21.25;16.98;;;;;;;;;;5048890;28;20131;-76
2022/10/01 13:50:57;;;;;;;20.98;17.65;;;;;;;;;;5061220;28;20610;-83
2022/10/01 13:53:24;;;;;;;21.50;17.38;;;;;;;;;;5052537;28;20044;-82
2022/10/01 13:55:51;;;;;;;20.15;17.90;;;;;;;;;;5048789;28;20060;-83
2022/10/01 13:58:20;;;;;;;23.45;19.38;;;;;;;;;;5051832;28;20052;-84
2022/10/01 14:00:47;;;;;;;23.65;20.27;;;;;;;;;;5058486;28;20043;-85
2022/10/01 14:03:26;;;;;;;30.05;21.00;;;;;;;;;;5066498;28;20081;-86
2022/10/01 14:05:53;;;;;;;34.00;27.45;;;;;;;;;;5072651;28;20028;-84
2022/10/01 14:08:22;;;;;;;38.47;28.95;;;;;;;;;;5062999;28;20032;-83
2022/10/01 14:16:28;;;;;;;34.28;23.77;;;;;;;;;;5061580;28;20107;-84
2022/10/01 14:18:54;;;;;;;34.67;26.80;;;;;;;;;;5059234;28;20136;-89
2022/10/01 14:21:27;;;;;;;35.55;25.05;;;;;;;;;;5072848;28;20041;-86
2022/10/01 14:23:57;;;;;;;32.53;23.10;;;;;;;;;;5069358;28;20045;-84
2022/10/01 14:26:23;;;;;;;32.97;23.63;;;;;;;;;;5063811;28;20128;-82
2022/10/01 14:29:09;;;;;;;29.55;24.35;;;;;;;;;;5060160;28;20068;-86
2022/10/01 14:31:35;;;;;;;28.90;22.52;;;;;;;;;;5062611;28;20065;-85
2022/10/01 14:34:11;;;;;;;34.45;24.48;;;;;;;;;;5071589;28;20029;-87